createdAt,value
2023-05-10T00:00:41.511Z,20.80
2023-05-10T00:03:08.477Z,20.58
2023-05-10T00:05:35.809Z,22.02
2023-05-10T00:08:02.522Z,20.35
2023-05-10T00:10:29.324Z,19.05
2023-05-10T00:12:57.024Z,22.13
2023-05-10T00:15:23.918Z,28.10
2023-05-10T00:17:50.640Z,30.65
2023-05-10T00:20:18.221Z,29.95
2023-05-10T00:22:45.492Z,33.70
2023-05-10T00:25:12.246Z,25.88
2023-05-10T00:27:39.030Z,32.00
2023-05-10T00:30:06.483Z,39.08
2023-05-10T00:32:33.707Z,38.75
2023-05-10T00:35:00.442Z,35.28
2023-05-10T00:37:27.573Z,33.28
2023-05-10T00:39:55.487Z,32.97
2023-05-10T00:42:22.383Z,51.42
2023-05-10T00:44:49.632Z,55.30
2023-05-10T00:47:18.099Z,49.58
2023-05-10T00:49:45.960Z,47.35
2023-05-10T00:52:12.935Z,41.50
2023-05-10T00:54:40.230Z,37.17
2023-05-10T00:57:07.062Z,36.40
2023-05-10T00:59:34.206Z,37.30
2023-05-10T01:02:01.418Z,21.83
2023-05-10T01:04:30.349Z,20.45
2023-05-10T01:06:58.660Z,15.77
2023-05-10T01:09:27.396Z,12.18
2023-05-10T01:11:55.224Z,13.85
2023-05-10T01:14:23.371Z,19.58
2023-05-10T01:16:51.308Z,13.57
2023-05-10T01:19:25.183Z,13.90
2023-05-10T01:21:52.019Z,15.63
2023-05-10T01:24:43.229Z,23.67
2023-05-10T01:27:47.555Z,17.45
2023-05-10T01:30:17.341Z,19.10
2023-05-10T01:33:17.808Z,19.40
2023-05-10T01:35:48.158Z,21.33
2023-05-10T01:38:44.727Z,11.43
2023-05-10T01:41:59.819Z,21.75
2023-05-10T01:44:38.721Z,23.67
2023-05-10T01:47:15.266Z,20.48
2023-05-10T01:49:50.635Z,20.85
2023-05-10T01:52:20.854Z,15.48
2023-05-10T01:54:56.748Z,16.65
2023-05-10T01:57:28.725Z,12.38
2023-05-10T01:59:56.625Z,13.30
2023-05-10T02:02:25.657Z,15.35
2023-05-10T02:04:54.270Z,9.85
2023-05-10T02:07:22.915Z,18.02
2023-05-10T02:09:50.531Z,10.48
2023-05-10T02:12:18.707Z,10.32
2023-05-10T02:14:46.304Z,8.52
2023-05-10T02:17:14.557Z,13.52
2023-05-10T02:19:43.580Z,15.27
2023-05-10T02:22:13.221Z,9.13
2023-05-10T02:24:41.596Z,16.23
2023-05-10T02:27:11.000Z,13.80
2023-05-10T02:29:38.534Z,13.68
2023-05-10T02:32:07.631Z,10.85
2023-05-10T02:34:34.923Z,13.27
2023-05-10T02:37:03.991Z,11.57
2023-05-10T02:39:32.846Z,11.98
2023-05-10T02:42:01.674Z,13.02
2023-05-10T02:44:32.190Z,10.73
2023-05-10T02:46:59.633Z,6.90
2023-05-10T02:49:26.525Z,8.30
2023-05-10T02:52:00.624Z,9.32
2023-05-10T02:54:33.045Z,9.20
2023-05-10T02:57:02.878Z,8.63
2023-05-10T02:59:29.723Z,11.23
2023-05-10T03:01:56.747Z,13.65
2023-05-10T03:04:23.675Z,14.93
2023-05-10T03:06:51.631Z,8.30
2023-05-10T03:09:18.951Z,16.00
2023-05-10T03:12:09.276Z,10.35
2023-05-10T03:15:00.971Z,11.43
2023-05-10T03:17:38.742Z,11.10
2023-05-10T03:20:10.998Z,13.90
2023-05-10T03:22:42.383Z,11.68
2023-05-10T03:25:12.901Z,15.57
2023-05-10T03:27:43.907Z,15.00
2023-05-10T03:30:15.352Z,16.63
2023-05-10T03:32:42.509Z,11.25
2023-05-10T03:35:14.364Z,10.95
2023-05-10T03:37:42.127Z,10.75
2023-05-10T03:40:11.126Z,10.73
2023-05-10T03:42:40.731Z,12.70
2023-05-10T03:45:08.792Z,12.65
2023-05-10T03:47:35.806Z,11.68
2023-05-10T03:50:03.560Z,10.73
2023-05-10T03:52:30.878Z,15.18
2023-05-10T03:54:57.959Z,13.65
2023-05-10T03:57:24.996Z,12.30
2023-05-10T03:59:52.274Z,14.57
2023-05-10T04:02:19.750Z,11.82
2023-05-10T04:04:47.013Z,12.68
2023-05-10T04:07:14.123Z,12.98
2023-05-10T04:09:41.329Z,15.90
2023-05-10T04:12:10.711Z,16.08
2023-05-10T04:14:38.600Z,17.90
2023-05-10T04:17:05.725Z,13.60
2023-05-10T04:19:33.174Z,13.65
2023-05-10T04:22:00.830Z,11.15
2023-05-10T04:24:27.695Z,16.08
2023-05-10T04:26:57.646Z,12.90
2023-05-10T04:29:24.953Z,12.65
2023-05-10T04:31:52.209Z,13.35
2023-05-10T04:34:19.314Z,12.15
2023-05-10T04:36:46.151Z,12.05
2023-05-10T04:39:13.141Z,11.70
2023-05-10T04:41:39.968Z,11.63
2023-05-10T04:44:07.413Z,13.75
2023-05-10T04:46:34.603Z,13.27
2023-05-10T04:49:01.539Z,13.85
2023-05-10T04:51:28.246Z,14.55
2023-05-10T04:54:05.397Z,12.45
2023-05-10T04:56:33.193Z,14.27
2023-05-10T04:59:00.175Z,15.40
2023-05-10T05:01:27.082Z,12.60
2023-05-10T05:03:54.391Z,13.95
2023-05-10T05:06:22.351Z,13.38
2023-05-10T05:08:50.709Z,13.18
2023-05-10T05:11:18.350Z,15.07
2023-05-10T05:13:45.087Z,10.75
2023-05-10T05:16:14.894Z,10.63
2023-05-10T05:18:41.666Z,10.90
2023-05-10T05:21:19.309Z,10.95
2023-05-10T05:23:46.658Z,12.80
2023-05-10T05:26:13.619Z,11.07
2023-05-10T05:28:40.482Z,12.45
2023-05-10T05:31:10.301Z,11.48
2023-05-10T05:33:37.771Z,10.00
2023-05-10T05:36:06.508Z,11.38
2023-05-10T05:38:33.473Z,10.15
2023-05-10T05:41:00.398Z,12.55
2023-05-10T05:43:27.379Z,12.65
2023-05-10T05:45:55.216Z,12.90
2023-05-10T05:48:22.451Z,12.98
2023-05-10T05:50:49.464Z,12.40
2023-05-10T05:53:17.006Z,10.45
2023-05-10T05:55:58.738Z,14.45
2023-05-10T05:58:26.425Z,15.10
2023-05-10T06:00:53.923Z,13.88
2023-05-10T06:03:21.829Z,14.50
2023-05-10T06:05:49.516Z,11.48
2023-05-10T06:08:16.551Z,10.13
2023-05-10T06:10:43.402Z,10.85
2023-05-10T06:13:10.450Z,10.82
2023-05-10T06:15:37.377Z,13.07
2023-05-10T06:18:04.364Z,13.35
2023-05-10T06:20:32.752Z,9.23
2023-05-10T06:23:00.502Z,11.75
2023-05-10T06:25:27.466Z,13.30
2023-05-10T06:27:58.478Z,11.65
2023-05-10T06:30:29.667Z,13.15
2023-05-10T06:35:24.083Z,8.65
2023-05-10T06:37:51.346Z,10.32
2023-05-10T06:40:18.366Z,11.57
2023-05-10T06:42:48.025Z,9.88
2023-05-10T06:45:16.033Z,14.05
2023-05-10T06:47:43.428Z,8.60
2023-05-10T06:50:11.009Z,9.02
2023-05-10T06:52:38.442Z,8.85
2023-05-10T06:55:06.253Z,9.32
2023-05-10T06:57:33.052Z,8.32
2023-05-10T07:00:00.310Z,8.75
2023-05-10T07:02:27.695Z,8.38
2023-05-10T07:04:55.355Z,8.23
2023-05-10T07:07:22.375Z,8.25
2023-05-10T07:09:50.044Z,6.90
2023-05-10T07:12:17.160Z,6.85
2023-05-10T07:14:44.595Z,7.80
2023-05-10T07:17:11.503Z,7.90
2023-05-10T07:19:38.537Z,7.63
2023-05-10T07:22:05.375Z,11.30
2023-05-10T07:24:33.224Z,8.57
2023-05-10T07:27:01.984Z,9.73
2023-05-10T07:29:29.691Z,8.73
2023-05-10T07:31:58.758Z,6.63
2023-05-10T07:34:26.538Z,7.57
2023-05-10T07:36:53.829Z,7.78
2023-05-10T07:39:27.814Z,4.93
2023-05-10T07:41:56.308Z,7.03
2023-05-10T07:44:23.454Z,6.32
2023-05-10T07:46:50.734Z,7.35
2023-05-10T07:49:18.072Z,7.68
2023-05-10T07:51:45.292Z,9.25
2023-05-10T07:54:12.377Z,7.53
2023-05-10T07:56:40.841Z,6.55
2023-05-10T07:59:09.367Z,8.50
2023-05-10T08:01:37.592Z,8.32
2023-05-10T08:04:04.581Z,9.93
2023-05-10T08:06:31.758Z,9.32
2023-05-10T08:08:58.805Z,8.18
2023-05-10T08:11:26.380Z,8.85
2023-05-10T08:13:53.322Z,7.05
2023-05-10T08:16:20.806Z,6.78
2023-05-10T08:18:48.373Z,8.02
2023-05-10T08:21:16.217Z,8.27
2023-05-10T08:23:44.942Z,9.43
2023-05-10T08:26:12.544Z,10.38
2023-05-10T08:28:39.406Z,13.68
2023-05-10T08:31:06.717Z,11.35
2023-05-10T08:33:33.838Z,10.77
2023-05-10T08:36:00.781Z,10.18
2023-05-10T08:38:27.849Z,11.13
2023-05-10T08:40:59.825Z,13.60
2023-05-10T08:43:31.124Z,13.32
2023-05-10T08:46:01.827Z,9.27
2023-05-10T08:48:35.813Z,11.68
2023-05-10T08:51:03.877Z,12.48
2023-05-10T08:53:34.717Z,12.73
2023-05-10T08:56:03.456Z,17.20
2023-05-10T08:58:30.743Z,16.45
2023-05-10T09:00:58.943Z,16.35
2023-05-10T09:03:25.987Z,13.35
2023-05-10T09:05:53.008Z,14.23
2023-05-10T09:08:20.958Z,15.68
2023-05-10T09:10:49.281Z,12.18
2023-05-10T09:13:19.324Z,14.27
2023-05-10T09:15:46.790Z,15.80
2023-05-10T09:18:14.192Z,14.05
2023-05-10T09:20:41.981Z,15.32
2023-05-10T09:23:09.706Z,14.05
2023-05-10T09:25:36.870Z,13.80
2023-05-10T09:28:07.362Z,14.38
2023-05-10T09:30:34.348Z,13.13
2023-05-10T09:33:02.014Z,10.98
2023-05-10T09:35:32.610Z,10.25
2023-05-10T09:38:05.539Z,12.73
2023-05-10T09:40:33.183Z,11.95
2023-05-10T09:43:04.164Z,15.65
2023-05-10T09:45:32.960Z,15.88
2023-05-10T09:48:02.078Z,10.82
2023-05-10T09:50:29.967Z,14.43
2023-05-10T09:53:02.247Z,15.50
2023-05-10T09:55:45.955Z,13.07
2023-05-10T09:58:14.350Z,15.10
2023-05-10T10:00:43.011Z,10.98
2023-05-10T10:03:21.108Z,13.90
2023-05-10T10:05:49.187Z,13.90
2023-05-10T10:08:17.031Z,12.57
2023-05-10T10:10:50.354Z,12.50
2023-05-10T10:13:18.474Z,13.30
2023-05-10T10:15:46.219Z,11.98
2023-05-10T10:18:15.936Z,11.45
2023-05-10T10:20:43.205Z,12.30
2023-05-10T10:23:10.843Z,13.07
2023-05-10T10:25:39.739Z,14.57
2023-05-10T10:28:18.480Z,14.48
2023-05-10T10:30:52.026Z,13.32
2023-05-10T10:33:28.889Z,13.50
2023-05-10T10:35:59.074Z,16.55
2023-05-10T10:38:26.056Z,14.38
2023-05-10T10:41:28.104Z,13.73
2023-05-10T10:44:26.446Z,15.82
2023-05-10T10:47:27.947Z,16.25
2023-05-10T10:52:34.583Z,12.90
2023-05-10T10:55:07.362Z,11.93
2023-05-10T10:57:44.784Z,12.15
2023-05-10T11:00:31.820Z,11.18
2023-05-10T11:03:10.101Z,10.95
2023-05-10T11:05:41.695Z,9.30
2023-05-10T11:08:13.031Z,12.60
2023-05-10T11:10:40.921Z,10.75
2023-05-10T11:13:10.167Z,11.20
2023-05-10T11:15:39.014Z,8.32
2023-05-10T11:18:31.231Z,10.32
2023-05-10T11:21:08.343Z,7.45
2023-05-10T11:23:41.451Z,7.43
2023-05-10T11:26:12.510Z,8.45
2023-05-10T11:28:50.148Z,9.82
2023-05-10T11:31:19.076Z,8.23
2023-05-10T11:33:47.369Z,10.07
2023-05-10T11:36:17.519Z,14.65
2023-05-10T11:38:44.667Z,8.70
2023-05-10T11:41:12.715Z,8.15
2023-05-10T11:43:43.569Z,11.45
2023-05-10T11:46:14.879Z,10.27
2023-05-10T11:48:42.676Z,10.15
2023-05-10T11:51:10.549Z,9.30
2023-05-10T11:53:38.277Z,9.48
2023-05-10T11:56:10.474Z,10.43
2023-05-10T11:58:39.092Z,11.45
2023-05-10T12:01:07.990Z,9.32
2023-05-10T12:03:35.685Z,8.00
2023-05-10T12:06:04.298Z,7.80
2023-05-10T12:08:32.071Z,9.80
2023-05-10T12:11:08.128Z,9.57
2023-05-10T12:13:42.516Z,7.38
2023-05-10T12:16:18.228Z,8.82
2023-05-10T12:18:45.758Z,9.25
2023-05-10T12:21:13.764Z,14.38
2023-05-10T12:23:41.214Z,12.63
2023-05-10T12:26:10.457Z,13.13
2023-05-10T12:28:38.624Z,9.20
2023-05-10T12:31:06.839Z,8.10
2023-05-10T12:33:51.797Z,7.40
2023-05-10T12:36:24.942Z,6.50
2023-05-10T12:38:53.767Z,5.60
2023-05-10T12:41:21.084Z,5.03
2023-05-10T12:43:48.295Z,5.63
2023-05-10T12:46:18.790Z,7.30
2023-05-10T12:48:48.102Z,6.85
2023-05-10T12:51:18.461Z,5.07
2023-05-10T12:53:49.328Z,4.28
2023-05-10T12:56:16.299Z,5.43
2023-05-10T12:58:43.370Z,5.40
2023-05-10T13:01:10.206Z,5.38
2023-05-10T13:03:39.324Z,6.47
2023-05-10T13:06:07.443Z,5.05
2023-05-10T13:08:36.738Z,8.73
2023-05-10T13:11:04.179Z,6.25
2023-05-10T13:13:31.613Z,4.13
2023-05-10T13:16:00.858Z,4.95
2023-05-10T13:18:27.883Z,3.60
2023-05-10T13:21:00.778Z,4.65
2023-05-10T13:23:32.522Z,3.88
2023-05-10T13:26:00.424Z,4.63
2023-05-10T13:28:27.526Z,3.72
2023-05-10T13:30:54.343Z,3.78
2023-05-10T13:33:21.684Z,4.93
2023-05-10T13:35:48.722Z,6.13
2023-05-10T13:38:15.422Z,5.55
2023-05-10T13:40:42.210Z,5.72
2023-05-10T13:43:09.293Z,7.40
2023-05-10T13:45:36.027Z,5.47
2023-05-10T13:48:03.048Z,6.10
2023-05-10T13:50:29.933Z,6.68
2023-05-10T13:52:56.970Z,5.85
2023-05-10T13:55:24.603Z,6.30
2023-05-10T13:57:51.608Z,5.68
2023-05-10T14:00:18.868Z,7.10
2023-05-10T14:02:45.748Z,5.45
2023-05-10T14:05:12.917Z,6.97
2023-05-10T14:07:40.997Z,7.88
2023-05-10T14:10:08.170Z,5.47
2023-05-10T14:12:34.949Z,7.45
2023-05-10T14:15:02.243Z,5.70
2023-05-10T14:17:30.496Z,6.80
2023-05-10T14:19:58.032Z,4.85
2023-05-10T14:22:24.813Z,6.30
2023-05-10T14:24:53.585Z,5.40
2023-05-10T14:27:20.697Z,8.05
2023-05-10T14:29:49.946Z,5.28
2023-05-10T14:32:16.723Z,6.30
2023-05-10T14:34:43.707Z,5.53
2023-05-10T14:37:12.685Z,7.07
2023-05-10T14:39:39.584Z,5.68
2023-05-10T14:42:07.906Z,3.95
2023-05-10T14:44:35.113Z,5.40
2023-05-10T14:47:02.065Z,5.30
2023-05-10T14:49:28.982Z,6.10
2023-05-10T14:51:55.967Z,7.60
2023-05-10T14:54:23.558Z,6.20
2023-05-10T14:56:51.172Z,5.03
2023-05-10T14:59:18.087Z,6.45
2023-05-10T15:01:45.746Z,6.75
2023-05-10T15:04:17.148Z,5.70
2023-05-10T15:06:44.581Z,7.32
2023-05-10T15:09:11.597Z,7.28
2023-05-10T15:11:39.109Z,9.55
2023-05-10T15:14:06.234Z,5.78
2023-05-10T15:16:35.638Z,7.68
2023-05-10T15:19:04.067Z,6.80
2023-05-10T15:21:38.782Z,7.28
2023-05-10T15:24:08.427Z,4.95
2023-05-10T15:26:35.422Z,5.13
2023-05-10T15:29:04.403Z,6.57
2023-05-10T15:31:33.361Z,7.82
2023-05-10T15:34:00.915Z,7.25
2023-05-10T15:36:29.201Z,4.70
2023-05-10T15:38:56.372Z,4.70
2023-05-10T15:41:23.838Z,5.60
2023-05-10T15:43:50.569Z,4.93
2023-05-10T15:46:17.452Z,6.22
2023-05-10T15:48:44.238Z,4.88
2023-05-10T15:51:11.183Z,4.45
2023-05-10T15:53:38.017Z,5.60
2023-05-10T15:56:05.821Z,6.07
2023-05-10T15:58:32.563Z,7.55
2023-05-10T16:00:59.650Z,6.35
2023-05-10T16:03:26.841Z,7.85
2023-05-10T16:05:53.995Z,5.75
2023-05-10T16:08:20.753Z,6.65
2023-05-10T16:10:47.590Z,7.65
2023-05-10T16:13:19.983Z,5.80
2023-05-10T16:15:47.110Z,5.03
2023-05-10T16:18:13.892Z,4.45
2023-05-10T16:20:41.440Z,4.13
2023-05-10T16:23:08.703Z,8.45
2023-05-10T16:25:35.917Z,4.97
2023-05-10T16:28:02.936Z,6.75
2023-05-10T16:30:31.134Z,7.45
2023-05-10T16:32:58.486Z,8.98
2023-05-10T16:35:25.769Z,10.60
2023-05-10T16:37:53.295Z,5.00
2023-05-10T16:40:20.629Z,7.50
2023-05-10T16:42:47.402Z,7.25
2023-05-10T16:45:14.571Z,7.13
2023-05-10T16:47:41.787Z,10.35
2023-05-10T16:50:09.114Z,8.43
2023-05-10T16:52:37.161Z,7.78
2023-05-10T16:55:04.675Z,7.50
2023-05-10T16:57:33.106Z,6.80
2023-05-10T16:59:59.900Z,11.05
2023-05-10T17:02:26.860Z,7.10
2023-05-10T17:04:55.380Z,8.38
2023-05-10T17:07:24.126Z,7.40
2023-05-10T17:09:52.998Z,8.55
2023-05-10T17:12:19.898Z,9.93
2023-05-10T17:14:47.615Z,8.55
2023-05-10T17:17:14.468Z,9.98
2023-05-10T17:19:44.937Z,7.63
2023-05-10T17:22:12.944Z,8.43
2023-05-10T17:24:39.955Z,7.70
2023-05-10T17:27:07.287Z,7.70
2023-05-10T17:29:34.083Z,7.28
2023-05-10T17:32:03.295Z,7.05
2023-05-10T17:34:30.122Z,7.00
2023-05-10T17:36:58.347Z,9.20
2023-05-10T17:39:25.170Z,11.05
2023-05-10T17:41:53.357Z,8.98
2023-05-10T17:44:20.217Z,9.70
2023-05-10T17:46:47.291Z,8.48
2023-05-10T17:49:14.214Z,10.30
2023-05-10T17:51:44.217Z,6.95
2023-05-10T17:54:11.055Z,6.22
2023-05-10T17:56:37.910Z,7.70
2023-05-10T17:59:05.545Z,6.32
2023-05-10T18:01:32.444Z,8.27
2023-05-10T18:03:59.230Z,6.07
2023-05-10T18:06:26.609Z,7.38
2023-05-10T18:08:53.377Z,6.00
2023-05-10T18:11:20.473Z,9.63
2023-05-10T18:13:47.630Z,8.00
2023-05-10T18:16:14.474Z,6.28
2023-05-10T18:18:41.354Z,5.03
2023-05-10T18:21:08.161Z,5.32
2023-05-10T18:23:35.311Z,5.22
2023-05-10T18:26:02.781Z,5.53
2023-05-10T18:28:30.950Z,5.20
2023-05-10T18:30:58.477Z,3.90
2023-05-10T18:33:25.405Z,5.32
2023-05-10T18:35:52.322Z,5.70
2023-05-10T18:38:19.657Z,4.72
2023-05-10T18:40:51.652Z,8.88
2023-05-10T18:43:18.432Z,5.65
2023-05-10T18:46:08.079Z,5.32
2023-05-10T18:51:01.927Z,6.22
2023-05-10T18:53:32.672Z,9.10
2023-05-10T18:56:00.342Z,5.95
2023-05-10T18:58:29.184Z,3.75
2023-05-10T19:00:56.263Z,4.53
2023-05-10T19:03:24.419Z,3.97
2023-05-10T19:05:51.333Z,5.55
2023-05-10T19:08:18.308Z,5.13
2023-05-10T19:10:49.596Z,6.47
2023-05-10T19:13:16.350Z,6.75
2023-05-10T19:15:43.498Z,7.78
2023-05-10T19:18:13.849Z,8.02
2023-05-10T19:20:42.442Z,9.13
2023-05-10T19:23:10.409Z,7.43
2023-05-10T19:25:42.612Z,7.25
2023-05-10T19:28:14.184Z,8.02
2023-05-10T19:30:41.686Z,9.52
2023-05-10T19:33:10.296Z,6.50
2023-05-10T19:35:39.018Z,7.63
2023-05-10T19:38:06.009Z,5.45
2023-05-10T19:40:35.129Z,11.55
2023-05-10T19:43:02.882Z,7.03
2023-05-10T19:45:30.399Z,10.32
2023-05-10T19:47:58.679Z,8.73
2023-05-10T19:50:27.697Z,17.60
2023-05-10T19:52:55.102Z,14.90
2023-05-10T19:55:29.712Z,8.75
2023-05-10T19:57:56.859Z,8.35
2023-05-10T20:00:29.071Z,15.13
2023-05-10T20:02:56.229Z,10.48
2023-05-10T20:05:24.649Z,7.25
2023-05-10T20:07:51.990Z,8.18
2023-05-10T20:10:19.504Z,6.55
2023-05-10T20:12:52.393Z,8.63
2023-05-10T20:15:23.124Z,7.32
2023-05-10T20:17:53.324Z,10.82
2023-05-10T20:20:21.330Z,8.60
2023-05-10T20:22:50.110Z,12.68
2023-05-10T20:25:18.082Z,9.05
2023-05-10T20:27:51.500Z,6.47
2023-05-10T20:30:18.689Z,9.13
2023-05-10T20:32:52.017Z,9.13
2023-05-10T20:35:18.968Z,7.95
2023-05-10T20:37:45.809Z,7.63
2023-05-10T20:40:13.584Z,10.18
2023-05-10T20:42:40.301Z,7.07
2023-05-10T20:45:09.009Z,7.72
2023-05-10T20:47:36.340Z,5.55
2023-05-10T20:50:04.953Z,5.82
2023-05-10T20:52:32.223Z,6.43
2023-05-10T20:55:02.271Z,5.80
2023-05-10T20:57:29.200Z,5.68
2023-05-10T20:59:59.664Z,5.97
2023-05-10T21:02:27.142Z,7.50
2023-05-10T21:05:00.469Z,7.93
2023-05-10T21:07:27.456Z,10.25
2023-05-10T21:09:54.293Z,13.20
2023-05-10T21:12:22.204Z,15.68
2023-05-10T21:14:49.057Z,6.85
2023-05-10T21:17:21.909Z,7.55
2023-05-10T21:19:48.824Z,8.27
2023-05-10T21:22:17.026Z,7.45
2023-05-10T21:24:44.323Z,8.43
2023-05-10T21:27:14.675Z,6.88
2023-05-10T21:29:41.800Z,8.10
2023-05-10T21:32:08.997Z,5.63
2023-05-10T21:34:41.607Z,5.63
2023-05-10T21:37:09.298Z,7.32
2023-05-10T21:39:36.619Z,7.25
2023-05-10T21:42:04.021Z,10.45
2023-05-10T21:44:32.267Z,8.35
2023-05-10T21:46:59.341Z,6.00
2023-05-10T21:49:26.486Z,9.77
2023-05-10T21:51:54.501Z,10.07
2023-05-10T21:54:21.421Z,7.78
2023-05-10T21:56:48.711Z,6.78
2023-05-10T21:59:18.571Z,5.72
2023-05-10T22:01:45.728Z,8.63
2023-05-10T22:04:12.798Z,7.85
2023-05-10T22:06:39.654Z,7.15
2023-05-10T22:09:07.130Z,9.27
2023-05-10T22:11:38.902Z,6.25
2023-05-10T22:16:35.206Z,6.00
2023-05-10T22:19:02.075Z,6.80
2023-05-10T22:21:30.102Z,7.50
2023-05-10T22:23:57.102Z,7.28
2023-05-10T22:26:24.055Z,8.98
2023-05-10T22:29:01.034Z,9.10
2023-05-10T22:31:28.421Z,8.30
2023-05-10T22:33:56.529Z,9.02
2023-05-10T22:36:23.441Z,7.15
2023-05-10T22:38:50.374Z,6.35
2023-05-10T22:41:17.919Z,4.80
2023-05-10T22:43:45.912Z,6.30
2023-05-10T22:46:13.636Z,5.57
2023-05-10T22:48:42.718Z,5.25
2023-05-10T22:51:10.019Z,5.43
2023-05-10T22:53:42.122Z,7.60
2023-05-10T22:56:09.073Z,5.97
2023-05-10T22:58:36.202Z,7.05
2023-05-10T23:01:03.402Z,6.88
2023-05-10T23:03:30.755Z,8.65
2023-05-10T23:05:57.693Z,9.52
2023-05-10T23:08:26.681Z,4.57
2023-05-10T23:10:53.683Z,5.90
2023-05-10T23:13:21.996Z,4.10
2023-05-10T23:15:50.313Z,4.00
2023-05-10T23:18:18.545Z,6.72
2023-05-10T23:20:46.311Z,5.45
2023-05-10T23:23:14.657Z,6.65
2023-05-10T23:25:41.833Z,8.63
2023-05-10T23:28:12.114Z,6.75
2023-05-10T23:30:39.155Z,9.43
2023-05-10T23:33:06.474Z,4.70
2023-05-10T23:35:34.601Z,5.88
2023-05-10T23:38:01.515Z,5.15
2023-05-10T23:40:29.482Z,5.72
2023-05-10T23:42:56.744Z,5.07
2023-05-10T23:45:23.721Z,4.38
2023-05-10T23:47:50.690Z,7.55
2023-05-10T23:50:18.060Z,5.07
2023-05-10T23:52:46.141Z,4.20
2023-05-10T23:55:13.195Z,3.35
2023-05-10T23:57:40.208Z,3.95
